Time;durP1;ratioP1;P1;durP2;ratioP2;P2;SDS_P1;SDS_P2;PMS_P1;PMS_P2;Temp;Humidity;BMP_temperature;BMP_pressure;BME280_temperature;BME280_humidity;BME280_pressure;Samples;Min_cycle;Max_cycle;Signal;HPM_P1;HPM_P2
2023/05/25 00:02:16;;;;;;;20.38;6.32;;;;;;;8.79;98.54;102380.91;5093484;28;20444;-72
2023/05/25 00:04:42;;;;;;;18.08;5.97;;;;;;;8.79;98.53;102383.59;5072919;28;20039;-72
2023/05/25 00:07:07;;;;;;;21.50;6.50;;;;;;;8.74;97.94;102379.28;5087288;28;20387;-72
2023/05/25 00:09:33;;;;;;;20.30;6.82;;;;;;;8.73;97.97;102377.53;5099412;28;20032;-72
2023/05/25 00:11:59;;;;;;;22.02;7.53;;;;;;;8.71;98.30;102382.09;5072627;28;20098;-73
2023/05/25 00:14:25;;;;;;;22.05;7.05;;;;;;;8.78;97.98;102381.84;5089825;28;20558;-73
2023/05/25 00:16:50;;;;;;;20.15;5.97;;;;;;;8.75;97.95;102382.84;5092562;28;20108;-72
2023/05/25 00:19:17;;;;;;;20.35;6.55;;;;;;;8.73;98.07;102382.91;5099377;28;20466;-72
2023/05/25 00:21:44;;;;;;;20.35;6.93;;;;;;;8.76;98.30;102378.38;5104172;28;20046;-72
2023/05/25 00:24:10;;;;;;;21.75;6.50;;;;;;;8.73;98.50;102382.91;5092258;28;20134;-72
2023/05/25 00:26:36;;;;;;;24.65;7.68;;;;;;;8.72;98.15;102383.81;5095523;28;20108;-72
2023/05/25 00:29:04;;;;;;;19.08;6.90;;;;;;;8.73;98.22;102380.22;5105429;28;20027;-72
2023/05/25 00:31:34;;;;;;;21.10;7.57;;;;;;;8.77;98.01;102378.31;5092721;28;20131;-72
2023/05/25 00:33:59;;;;;;;23.10;7.53;;;;;;;8.75;97.98;102382.84;5082549;28;20024;-72
2023/05/25 00:36:24;;;;;;;20.92;6.75;;;;;;;8.73;98.02;102380.22;5103721;28;20332;-72
2023/05/25 00:38:50;;;;;;;24.48;7.05;;;;;;;8.68;98.15;102390.28;5095919;28;20478;-72
2023/05/25 00:41:19;;;;;;;21.85;7.45;;;;;;;8.67;98.55;102385.84;5102396;28;20030;-72
2023/05/25 00:43:45;;;;;;;20.38;6.32;;;;;;;8.68;98.42;102387.59;5079483;28;20019;-72
2023/05/25 00:46:13;;;;;;;22.05;6.95;;;;;;;8.67;98.08;102390.34;5098682;28;20024;-72
2023/05/25 00:48:39;;;;;;;19.90;6.40;;;;;;;8.69;97.97;102391.13;5093457;28;20536;-72
2023/05/25 00:51:05;;;;;;;23.92;6.97;;;;;;;8.65;98.39;102386.81;5076337;28;20019;-72
2023/05/25 00:53:32;;;;;;;20.75;7.38;;;;;;;8.65;98.64;102389.50;5077019;28;20475;-72
2023/05/25 00:56:22;;;;;;;19.60;6.35;;;;;;;8.62;98.84;102385.13;5090404;28;20040;-72
2023/05/25 00:58:54;;;;;;;21.25;6.03;;;;;;;8.61;99.15;102386.09;5069462;28;20451;-72
2023/05/25 01:01:21;;;;;;;19.25;6.18;;;;;;;8.62;98.99;102386.94;5080564;28;20484;-72
2023/05/25 01:03:53;;;;;;;22.60;7.32;;;;;;;8.57;99.63;102390.69;5080091;28;20020;-72
2023/05/25 01:06:21;;;;;;;21.50;6.35;;;;;;;8.61;99.89;102394.13;5085362;28;20165;-72
2023/05/25 01:08:51;;;;;;;23.88;6.68;;;;;;;8.57;99.49;102396.03;5097763;28;20030;-72
2023/05/25 01:11:21;;;;;;;19.45;6.32;;;;;;;8.61;99.26;102393.22;5102551;28;20391;-73
2023/05/25 01:13:49;;;;;;;23.13;7.20;;;;;;;8.56;99.31;102394.31;5081475;28;20103;-72
2023/05/25 01:16:15;;;;;;;21.33;6.22;;;;;;;8.55;98.86;102394.34;5095873;28;20020;-72
2023/05/25 01:18:40;;;;;;;21.42;6.38;;;;;;;8.52;98.78;102397.16;5077717;28;20399;-72
2023/05/25 01:21:20;;;;;;;18.15;6.32;;;;;;;8.49;99.09;102394.59;5109870;28;20027;-72
2023/05/25 01:23:52;;;;;;;21.58;5.47;;;;;;;8.51;99.12;102392.75;5088752;28;20035;-72
2023/05/25 01:26:22;;;;;;;18.25;5.65;;;;;;;8.50;99.14;102401.72;5082073;28;20036;-73
2023/05/25 01:28:50;;;;;;;23.83;6.95;;;;;;;8.48;99.31;102406.28;5091165;28;20027;-72
2023/05/25 01:31:19;;;;;;;18.90;6.10;;;;;;;8.45;99.09;102396.53;5075742;28;20039;-72
2023/05/25 01:33:48;;;;;;;21.52;6.55;;;;;;;8.45;98.81;102406.38;5092665;28;20028;-72
2023/05/25 01:36:13;;;;;;;19.48;6.93;;;;;;;8.44;98.46;102404.63;5097957;28;20486;-72
2023/05/25 01:38:39;;;;;;;18.85;6.45;;;;;;;8.39;98.97;102407.47;5097257;28;20046;-72
2023/05/25 01:41:04;;;;;;;21.00;5.82;;;;;;;8.37;98.57;102410.19;5103541;28;20468;-72
2023/05/25 01:43:29;;;;;;;20.70;6.28;;;;;;;8.36;98.66;102403.09;5096104;28;20539;-72
2023/05/25 01:46:06;;;;;;;22.80;5.85;;;;;;;8.35;98.31;102412.06;5093593;28;20597;-72
2023/05/25 01:48:46;;;;;;;19.33;5.97;;;;;;;8.29;98.37;102406.94;5078736;28;20380;-72
2023/05/25 01:51:54;;;;;;;21.00;5.97;;;;;;;8.32;98.11;102412.19;5102747;28;20023;-72
2023/05/25 01:54:22;;;;;;;18.35;5.88;;;;;;;8.25;98.14;102415.16;5078437;28;20479;-72
2023/05/25 01:56:49;;;;;;;16.40;5.53;;;;;;;8.22;98.00;102414.34;5069297;28;20040;-72
2023/05/25 01:59:20;;;;;;;20.23;5.97;;;;;;;8.18;98.18;102417.19;5099055;28;20443;-72
2023/05/25 02:01:46;;;;;;;19.08;6.40;;;;;;;8.15;98.68;102417.31;5094846;28;20387;-72
2023/05/25 02:04:13;;;;;;;16.33;6.20;;;;;;;8.11;98.38;102419.25;5096290;28;20052;-73
2023/05/25 02:06:38;;;;;;;21.83;6.53;;;;;;;8.09;98.61;102415.75;5067716;28;20024;-73
2023/05/25 02:09:04;;;;;;;22.10;5.93;;;;;;;8.08;99.09;102418.47;5090782;28;20024;-72
2023/05/25 02:11:29;;;;;;;19.80;6.70;;;;;;;8.09;99.69;102417.56;5102743;28;20051;-72
2023/05/25 02:13:54;;;;;;;23.05;6.45;;;;;;;8.05;100.00;102415.00;5100393;28;20035;-73
2023/05/25 02:16:20;;;;;;;20.70;7.07;;;;;;;8.07;100.00;102419.41;5089675;28;20032;-72
2023/05/25 02:18:45;;;;;;;25.65;6.70;;;;;;;8.05;100.00;102414.09;5098064;28;20028;-72
2023/05/25 02:21:11;;;;;;;19.63;6.55;;;;;;;8.04;100.00;102407.88;5081315;28;20020;-72
2023/05/25 02:23:36;;;;;;;19.40;6.03;;;;;;;8.00;100.00;102408.91;5096179;28;20032;-73
2023/05/25 02:26:01;;;;;;;22.58;6.90;;;;;;;8.01;100.00;102410.69;5091791;28;20031;-73
2023/05/25 02:28:28;;;;;;;20.75;6.97;;;;;;;7.98;100.00;102410.78;5081782;28;20134;-72
2023/05/25 02:30:53;;;;;;;20.35;6.55;;;;;;;7.98;99.98;102413.47;5099343;28;20115;-72
2023/05/25 02:33:19;;;;;;;22.65;7.13;;;;;;;7.98;100.00;102410.78;5099914;28;20487;-72
2023/05/25 02:35:44;;;;;;;19.73;6.25;;;;;;;7.97;100.00;102411.72;5075010;28;20028;-73
2023/05/25 02:38:09;;;;;;;22.23;6.57;;;;;;;7.94;100.00;102406.47;5103987;28;20028;-72
2023/05/25 02:40:35;;;;;;;21.27;7.32;;;;;;;7.91;100.00;102411.09;5094885;28;20127;-73
2023/05/25 02:43:00;;;;;;;18.90;6.00;;;;;;;7.92;100.00;102411.03;5095196;28;20036;-72
2023/05/25 02:45:25;;;;;;;20.92;6.78;;;;;;;7.86;100.00;102414.81;5095285;28;20080;-72
2023/05/25 02:47:51;;;;;;;18.60;6.57;;;;;;;7.86;99.61;102419.25;5066875;28;20432;-73
2023/05/25 02:50:16;;;;;;;21.42;6.18;;;;;;;7.83;99.14;102414.91;5075156;28;20116;-72
2023/05/25 02:52:41;;;;;;;18.92;6.45;;;;;;;7.80;99.43;102417.69;5096321;28;20115;-72
2023/05/25 02:55:12;;;;;;;16.92;6.38;;;;;;;7.79;99.72;102413.28;5077475;28;20059;-73
2023/05/25 02:57:37;;;;;;;18.23;5.63;;;;;;;7.77;99.96;102416.94;5066325;28;20032;-73
2023/05/25 03:00:05;;;;;;;15.73;5.55;;;;;;;7.75;99.73;102411.63;5075171;28;20126;-73
2023/05/25 03:02:31;;;;;;;20.60;6.55;;;;;;;7.71;100.00;102415.34;5078383;28;20028;-73
2023/05/25 03:04:57;;;;;;;21.63;6.95;;;;;;;7.74;100.00;102403.66;5091377;28;20462;-72
2023/05/25 03:07:25;;;;;;;21.33;7.47;;;;;;;7.73;100.00;102409.94;5099286;28;20387;-72
2023/05/25 03:09:50;;;;;;;20.17;7.25;;;;;;;7.69;100.00;102423.44;5080623;28;20084;-72
2023/05/25 03:12:15;;;;;;;19.33;7.55;;;;;;;7.71;100.00;102415.34;5097233;28;20020;-73
2023/05/25 03:14:41;;;;;;;21.27;7.72;;;;;;;7.69;100.00;102420.75;5073609;28;20111;-73
2023/05/25 03:17:06;;;;;;;22.80;7.80;;;;;;;7.66;100.00;102428.91;5088042;28;20479;-72
2023/05/25 03:19:32;;;;;;;20.20;7.40;;;;;;;7.67;100.00;102425.31;5098589;28;20186;-73
2023/05/25 03:21:57;;;;;;;21.48;8.10;;;;;;;7.68;100.00;102431.53;5097398;28;20027;-73
2023/05/25 03:24:22;;;;;;;22.30;8.20;;;;;;;7.69;99.95;102427.94;5080068;28;20042;-73
2023/05/25 03:26:48;;;;;;;20.25;7.93;;;;;;;7.69;99.14;102427.94;5100130;28;20093;-73
2023/05/25 03:29:13;;;;;;;20.95;8.15;;;;;;;7.67;99.49;102435.13;5080609;28;20115;-73
2023/05/25 03:31:38;;;;;;;19.88;7.78;;;;;;;7.61;99.68;102441.56;5082032;28;20548;-73
2023/05/25 03:34:05;;;;;;;23.38;7.50;;;;;;;7.62;99.24;102454.00;5076002;28;20081;-73
2023/05/25 03:36:31;;;;;;;19.90;7.68;;;;;;;7.58;98.83;102444.34;5073090;28;20038;-73
2023/05/25 03:38:56;;;;;;;22.75;7.97;;;;;;;7.56;99.16;102446.22;5093212;28;20028;-73
2023/05/25 03:41:22;;;;;;;23.08;8.88;;;;;;;7.54;99.16;102456.09;5076715;28;20028;-72
2023/05/25 03:43:47;;;;;;;20.63;8.10;;;;;;;7.51;99.09;102456.19;5097605;28;20033;-73
2023/05/25 03:46:12;;;;;;;23.08;8.82;;;;;;;7.51;99.66;102456.19;5078268;28;20471;-73
2023/05/25 03:48:37;;;;;;;24.10;8.55;;;;;;;7.55;99.19;102457.81;5097418;28;20027;-73
2023/05/25 03:51:03;;;;;;;20.77;8.90;;;;;;;7.51;99.11;102459.75;5078873;28;20035;-73
2023/05/25 03:53:29;;;;;;;23.30;9.73;;;;;;;7.48;99.54;102464.31;5088138;28;20028;-73
2023/05/25 03:55:55;;;;;;;23.35;9.88;;;;;;;7.48;99.80;102467.88;5097996;28;20128;-73
2023/05/25 03:58:20;;;;;;;22.65;10.20;;;;;;;7.48;99.61;102467.88;5089100;28;20281;-73
2023/05/25 04:00:48;;;;;;;22.77;9.48;;;;;;;7.48;99.56;102470.56;5103639;28;20020;-72
2023/05/25 04:03:14;;;;;;;23.23;9.90;;;;;;;7.46;99.93;102474.22;5103833;28;20019;-73
2023/05/25 04:05:40;;;;;;;25.23;9.45;;;;;;;7.50;100.00;102476.72;5092289;28;20038;-72
2023/05/25 04:08:07;;;;;;;21.40;9.77;;;;;;;7.50;100.00;102481.22;5101239;28;20055;-73
2023/05/25 04:10:32;;;;;;;24.25;10.50;;;;;;;7.51;100.00;102475.81;5092023;28;20012;-72
2023/05/25 04:12:58;;;;;;;27.45;10.18;;;;;;;7.56;100.00;102475.63;5087851;28;20027;-73
2023/05/25 04:15:24;;;;;;;25.38;10.70;;;;;;;7.58;100.00;102476.44;5104245;28;20063;-73
2023/05/25 04:17:49;;;;;;;28.30;10.60;;;;;;;7.56;99.95;102478.31;5092216;28;20085;-72
2023/05/25 04:20:14;;;;;;;22.80;11.05;;;;;;;7.60;100.00;102471.94;5076273;28;20031;-73
2023/05/25 04:22:40;;;;;;;24.48;11.63;;;;;;;7.64;100.00;102478.94;5106097;28;20047;-73
2023/05/25 04:25:06;;;;;;;24.63;11.30;;;;;;;7.65;100.00;102469.09;5102401;28;20134;-73
2023/05/25 04:27:32;;;;;;;27.48;13.70;;;;;;;7.67;100.00;102469.91;5090541;28;20031;-73
2023/05/25 04:29:57;;;;;;;25.98;11.90;;;;;;;7.68;100.00;102472.53;5098042;28;21513;-73
2023/05/25 04:32:22;;;;;;;26.67;11.48;;;;;;;7.73;100.00;102479.53;5084572;28;20031;-73
2023/05/25 04:34:48;;;;;;;25.88;10.73;;;;;;;7.77;100.00;102484.72;5077028;28;20368;-73
2023/05/25 04:37:13;;;;;;;21.45;10.18;;;;;;;7.78;100.00;102485.59;5098810;28;20019;-73
2023/05/25 04:39:39;;;;;;;23.70;10.57;;;;;;;7.84;100.00;102482.69;5094940;28;20472;-73
2023/05/25 04:42:04;;;;;;;25.20;9.93;;;;;;;7.88;100.00;102485.22;5089824;28;20087;-73
2023/05/25 04:44:31;;;;;;;22.73;9.40;;;;;;;7.89;100.00;102483.41;5102100;28;20055;-73
2023/05/25 04:46:56;;;;;;;25.48;10.07;;;;;;;7.93;100.00;102486.84;5089983;28;20023;-72
2023/05/25 04:49:21;;;;;;;22.95;9.25;;;;;;;7.96;100.00;102484.06;5083541;28;20161;-72
2023/05/25 04:51:47;;;;;;;25.13;9.90;;;;;;;8.00;100.00;102485.72;5096221;28;20127;-73
2023/05/25 04:54:12;;;;;;;26.48;10.90;;;;;;;8.03;100.00;102486.47;5102453;28;20032;-73
2023/05/25 04:56:37;;;;;;;21.30;9.27;;;;;;;8.09;100.00;102480.00;5088029;28;21267;-73
2023/05/25 04:59:03;;;;;;;22.48;8.80;;;;;;;8.15;100.00;102490.50;5097014;28;20475;-72
2023/05/25 05:01:29;;;;;;;24.60;8.90;;;;;;;8.25;100.00;102492.84;5081113;28;20022;-72
2023/05/25 05:03:55;;;;;;;23.35;9.52;;;;;;;8.27;100.00;102493.66;5095822;28;20102;-72
2023/05/25 05:06:21;;;;;;;23.25;9.20;;;;;;;8.30;100.00;102493.53;5083981;28;20111;-72
2023/05/25 05:08:46;;;;;;;21.67;9.38;;;;;;;8.33;100.00;102494.31;5102049;28;20039;-72
2023/05/25 05:11:12;;;;;;;25.33;9.98;;;;;;;8.40;100.00;102500.28;5092972;28;20059;-73
2023/05/25 05:13:37;;;;;;;25.23;10.27;;;;;;;8.46;100.00;102504.59;5079229;28;20032;-72
2023/05/25 05:16:02;;;;;;;21.88;8.88;;;;;;;8.52;100.00;102504.34;5101158;28;20031;-72
2023/05/25 05:18:28;;;;;;;24.13;9.30;;;;;;;8.60;100.00;102496.03;5082539;28;20436;-72
2023/05/25 05:20:53;;;;;;;20.15;8.73;;;;;;;8.62;100.00;102489.66;5090974;28;20502;-72
2023/05/25 05:23:18;;;;;;;20.65;8.40;;;;;;;8.69;100.00;102504.56;5101822;28;20034;-73
2023/05/25 05:25:45;;;;;;;22.10;9.18;;;;;;;8.76;100.00;102504.34;5091747;28;20036;-72
2023/05/25 05:28:10;;;;;;;24.75;10.02;;;;;;;8.82;100.00;102509.47;5090441;28;20039;-72
2023/05/25 05:30:35;;;;;;;26.30;10.07;;;;;;;8.88;100.00;102501.19;5076902;28;20059;-72
2023/05/25 05:33:01;;;;;;;20.42;7.80;;;;;;;8.97;100.00;102506.16;5089904;28;20038;-72
2023/05/25 05:35:26;;;;;;;22.30;8.80;;;;;;;9.04;100.00;102512.16;5096421;28;20077;-72
2023/05/25 05:37:51;;;;;;;24.17;9.73;;;;;;;9.08;100.00;102525.38;5092279;28;20025;-72
2023/05/25 05:40:17;;;;;;;28.65;9.40;;;;;;;9.17;100.00;102524.16;5082593;28;20391;-72
2023/05/25 05:42:42;;;;;;;23.55;9.77;;;;;;;9.21;100.00;102525.78;5093219;28;20093;-73
2023/05/25 05:45:08;;;;;;;22.88;9.40;;;;;;;9.26;100.00;102525.59;5081329;28;20016;-72
2023/05/25 05:47:33;;;;;;;26.15;9.07;;;;;;;9.33;100.00;102529.75;5104892;28;20097;-72
2023/05/25 05:49:59;;;;;;;23.10;8.48;;;;;;;9.39;100.00;102537.56;5099989;28;20074;-72
2023/05/25 05:52:24;;;;;;;22.95;9.38;;;;;;;9.46;100.00;102543.56;5097835;28;20032;-72
2023/05/25 05:54:49;;;;;;;24.23;9.95;;;;;;;9.53;100.00;102541.47;5089639;28;20028;-73
2023/05/25 05:57:14;;;;;;;23.98;9.48;;;;;;;9.59;100.00;102542.09;5083286;28;20151;-73
2023/05/25 05:59:41;;;;;;;25.35;9.70;;;;;;;9.65;100.00;102551.72;5089202;28;20499;-73
2023/05/25 06:02:06;;;;;;;21.98;8.50;;;;;;;9.73;100.00;102546.88;5071821;28;20020;-73
2023/05/25 06:04:31;;;;;;;26.85;10.55;;;;;;;9.79;100.00;102551.13;5076145;28;20081;-73
2023/05/25 06:06:57;;;;;;;25.50;8.65;;;;;;;9.86;100.00;102547.22;5088139;28;20060;-73
2023/05/25 06:09:25;;;;;;;24.17;8.02;;;;;;;9.94;100.00;102552.25;5063659;28;20035;-73
2023/05/25 06:11:53;;;;;;;23.20;8.15;;;;;;;10.00;100.00;102557.38;5087013;28;20093;-73
2023/05/25 06:14:18;;;;;;;22.65;7.88;;;;;;;10.07;100.00;102556.19;5083038;28;20092;-72
2023/05/25 06:16:43;;;;;;;21.35;7.35;;;;;;;10.13;100.00;102558.59;5087413;28;20028;-73
2023/05/25 06:19:09;;;;;;;26.23;8.23;;;;;;;10.20;100.00;102553.81;5084739;28;20029;-73
2023/05/25 06:21:36;;;;;;;21.95;7.85;;;;;;;10.29;100.00;102557.91;5088185;28;20573;-73
2023/05/25 06:24:02;;;;;;;21.00;7.95;;;;;;;10.36;100.00;102559.41;5094229;28;20111;-73
2023/05/25 06:26:27;;;;;;;25.60;8.88;;;;;;;10.45;100.00;102560.81;5087333;28;20107;-73
2023/05/25 06:28:52;;;;;;;22.80;7.95;;;;;;;10.49;100.00;102563.28;5097545;28;20450;-73
2023/05/25 06:31:17;;;;;;;24.23;8.52;;;;;;;10.55;100.00;102562.13;5086285;28;20051;-73
2023/05/25 06:33:43;;;;;;;19.98;7.63;;;;;;;10.62;100.00;102562.72;5084005;28;20085;-73
2023/05/25 06:36:09;;;;;;;21.02;8.48;;;;;;;10.69;100.00;102572.25;5069333;28;20072;-73
2023/05/25 06:38:35;;;;;;;20.90;8.13;;;;;;;10.76;100.00;102578.22;5096646;28;20115;-73
2023/05/25 06:41:02;;;;;;;23.27;8.52;;;;;;;10.84;100.00;102581.44;5096255;28;20587;-73
2023/05/25 06:43:28;;;;;;;17.98;7.35;;;;;;;10.90;100.00;102572.19;5093232;28;20020;-73
2023/05/25 06:45:53;;;;;;;24.75;7.75;;;;;;;10.95;100.00;102572.84;5088515;28;20047;-73
2023/05/25 06:48:19;;;;;;;23.40;7.18;;;;;;;11.02;100.00;102579.69;5088492;28;20085;-73
2023/05/25 06:50:45;;;;;;;22.20;7.22;;;;;;;11.07;100.00;102580.34;5085848;28;20153;-73
2023/05/25 06:53:10;;;;;;;22.10;7.13;;;;;;;11.14;100.00;102586.28;5089908;28;20024;-73
2023/05/25 06:55:35;;;;;;;21.77;6.88;;;;;;;11.14;100.00;102587.19;5094066;28;20567;-73
2023/05/25 06:58:01;;;;;;;22.33;7.45;;;;;;;11.21;99.84;102581.50;5095601;28;20019;-72
2023/05/25 07:00:26;;;;;;;22.17;7.95;;;;;;;11.31;100.00;102578.28;5099867;28;20027;-72
2023/05/25 07:02:51;;;;;;;22.02;8.00;;;;;;;11.40;99.64;102584.19;5098357;28;20478;-73
2023/05/25 07:05:17;;;;;;;24.35;7.55;;;;;;;11.44;98.36;102586.63;5075034;28;20453;-73
2023/05/25 07:07:42;;;;;;;19.10;6.95;;;;;;;11.49;95.99;102581.91;5086318;28;20031;-73
2023/05/25 07:10:08;;;;;;;18.23;7.10;;;;;;;11.60;96.24;102593.97;5099724;28;20020;-72
2023/05/25 07:12:33;;;;;;;22.95;6.65;;;;;;;11.69;97.21;102606.97;5095609;28;20031;-73
2023/05/25 07:14:58;;;;;;;20.25;7.32;;;;;;;11.76;97.29;102594.94;5076826;28;20036;-70
2023/05/25 07:17:24;;;;;;;20.48;6.93;;;;;;;11.87;98.67;102605.16;5083693;28;20031;-69
2023/05/25 07:19:49;;;;;;;20.23;7.13;;;;;;;11.95;96.54;102602.09;5088152;28;20054;-69
2023/05/25 07:22:18;;;;;;;20.80;7.35;;;;;;;12.02;96.01;102600.84;5097591;28;20024;-68
2023/05/25 07:24:47;;;;;;;18.42;6.43;;;;;;;12.11;95.37;102603.06;5079962;28;20046;-69
2023/05/25 07:27:13;;;;;;;21.55;6.78;;;;;;;12.22;96.58;102608.75;5096517;28;20035;-69
2023/05/25 07:29:39;;;;;;;20.85;7.25;;;;;;;12.34;96.74;102601.00;5082693;28;20023;-73
2023/05/25 07:32:05;;;;;;;21.95;7.63;;;;;;;12.42;94.83;102604.16;5108567;28;20054;-73
2023/05/25 07:34:32;;;;;;;21.23;8.13;;;;;;;12.57;96.02;102605.16;5089628;28;20036;-72
2023/05/25 07:36:57;;;;;;;22.10;7.07;;;;;;;12.66;92.64;102603.78;5093980;28;20113;-73
2023/05/25 07:39:22;;;;;;;19.65;6.57;;;;;;;12.75;92.74;102608.69;5102939;28;20425;-72
2023/05/25 07:41:47;;;;;;;22.50;7.88;;;;;;;12.76;89.34;102602.34;5085673;28;20572;-73
2023/05/25 07:44:13;;;;;;;23.50;7.53;;;;;;;12.77;88.78;102601.41;5086318;28;20042;-73
2023/05/25 07:46:38;;;;;;;23.20;8.48;;;;;;;12.82;89.11;102610.09;5103525;28;20409;-72
2023/05/25 07:49:05;;;;;;;23.58;7.75;;;;;;;12.86;88.33;102608.13;5076943;28;20106;-73
2023/05/25 07:51:31;;;;;;;20.83;6.85;;;;;;;12.93;88.55;102599.59;5085614;28;20539;-73
2023/05/25 07:53:57;;;;;;;24.17;7.43;;;;;;;13.02;89.34;102609.00;5104711;28;20020;-73
2023/05/25 07:56:22;;;;;;;19.80;7.05;;;;;;;13.05;85.70;102606.13;5107667;28;20093;-73
2023/05/25 07:58:48;;;;;;;18.13;6.68;;;;;;;13.14;85.70;102607.44;5082449;28;20020;-72
2023/05/25 08:01:14;;;;;;;21.58;6.43;;;;;;;13.19;81.91;102612.59;5079573;28;20028;-73
2023/05/25 08:03:40;;;;;;;19.33;5.97;;;;;;;13.27;85.25;102616.59;5099451;28;20382;-73
2023/05/25 08:06:06;;;;;;;21.02;7.00;;;;;;;13.28;83.48;102610.25;5080144;28;20024;-73
2023/05/25 08:08:31;;;;;;;20.23;6.18;;;;;;;13.35;86.06;102613.47;5086380;28;20056;-72
2023/05/25 08:10:56;;;;;;;19.15;6.07;;;;;;;13.39;86.80;102611.50;5093076;28;20103;-72
2023/05/25 08:13:22;;;;;;;23.17;7.05;;;;;;;13.43;84.26;102619.31;5102437;28;20364;-72
2023/05/25 08:15:48;;;;;;;22.35;6.45;;;;;;;13.44;82.64;102617.50;5099012;28;20034;-73
2023/05/25 08:18:14;;;;;;;20.42;6.82;;;;;;;13.49;85.05;102612.72;5093442;28;20020;-73
2023/05/25 08:20:39;;;;;;;18.90;6.03;;;;;;;13.55;83.85;102622.28;5092733;28;20313;-73
2023/05/25 08:23:08;;;;;;;21.02;5.70;;;;;;;13.62;84.93;102624.53;5085830;28;20023;-73
2023/05/25 08:25:33;;;;;;;19.60;6.75;;;;;;;13.70;81.86;102631.34;5102924;28;20383;-73
2023/05/25 08:27:58;;;;;;;22.10;6.35;;;;;;;13.77;80.23;102625.47;5106648;28;20084;-73
2023/05/25 08:30:23;;;;;;;18.92;6.88;;;;;;;13.85;80.61;102618.75;5107785;28;20103;-72
2023/05/25 08:32:49;;;;;;;20.38;6.25;;;;;;;13.90;79.72;102624.78;5096266;28;20072;-72
2023/05/25 08:35:16;;;;;;;19.67;6.85;;;;;;;13.98;81.18;102614.34;5087910;28;20035;-73
2023/05/25 08:37:42;;;;;;;17.15;5.65;;;;;;;14.12;80.99;102624.34;5089471;28;20024;-72
2023/05/25 08:40:14;;;;;;;20.65;5.72;;;;;;;14.21;79.75;102628.34;5078235;28;20039;-72
2023/05/25 08:42:46;;;;;;;20.70;6.10;;;;;;;14.31;81.09;102633.09;5073498;28;20028;-72
2023/05/25 08:45:12;;;;;;;16.38;5.20;;;;;;;14.42;79.31;102631.56;5093028;28;20024;-72
2023/05/25 08:47:42;;;;;;;21.02;5.28;;;;;;;14.56;82.19;102633.44;5097638;28;20047;-73
2023/05/25 08:50:11;;;;;;;19.67;5.22;;;;;;;14.67;79.26;102630.94;5103659;28;20027;-72
2023/05/25 08:52:44;;;;;;;20.35;5.97;;;;;;;14.66;79.09;102634.63;5104005;28;20027;-72
2023/05/25 08:55:11;;;;;;;21.40;6.03;;;;;;;14.66;76.93;102630.09;5096334;28;20043;-73
2023/05/25 08:58:05;;;;;;;17.30;5.63;;;;;;;14.64;78.81;102632.03;5101589;28;20039;-73
2023/05/25 09:00:34;;;;;;;19.77;5.47;;;;;;;14.58;75.09;102645.03;5099877;28;20032;-72
2023/05/25 09:03:10;;;;;;;20.52;5.80;;;;;;;14.56;78.29;102638.84;5102900;28;20076;-73
2023/05/25 09:05:36;;;;;;;20.48;5.47;;;;;;;14.58;75.65;102653.13;5070825;28;20023;-72
2023/05/25 09:08:05;;;;;;;18.25;5.20;;;;;;;14.57;76.16;102635.16;5076706;28;20028;-73
2023/05/25 09:10:32;;;;;;;19.08;5.28;;;;;;;14.57;78.58;102641.47;5101903;28;20156;-73
2023/05/25 09:12:58;;;;;;;16.55;5.30;;;;;;;14.60;76.43;102638.56;5085054;28;20125;-72
2023/05/25 09:15:23;;;;;;;19.13;5.70;;;;;;;14.59;76.26;102639.53;5094979;28;20396;-73
2023/05/25 09:17:49;;;;;;;20.23;5.82;;;;;;;14.55;75.36;102646.06;5100397;28;20103;-72
2023/05/25 09:20:15;;;;;;;16.02;5.47;;;;;;;14.54;76.14;102643.47;5104962;28;20482;-73
2023/05/25 09:22:41;;;;;;;19.88;5.20;;;;;;;14.54;74.64;102643.47;5092784;28;20036;-73
2023/05/25 09:25:07;;;;;;;16.23;4.70;;;;;;;14.52;76.84;102632.75;5101540;28;20031;-72
2023/05/25 09:27:36;;;;;;;20.90;6.00;;;;;;;14.57;80.17;102638.75;5097549;28;20032;-72
2023/05/25 09:30:03;;;;;;;18.95;5.63;;;;;;;14.50;76.31;102637.38;5104768;28;20047;-72
2023/05/25 09:32:28;;;;;;;19.05;5.82;;;;;;;14.48;77.40;102642.00;5096789;28;20375;-73
2023/05/25 09:34:56;;;;;;;18.23;5.25;;;;;;;14.47;79.59;102645.69;5101304;28;20019;-72
2023/05/25 09:37:22;;;;;;;15.23;4.72;;;;;;;14.43;77.11;102650.41;5085216;28;20069;-72
2023/05/25 09:39:50;;;;;;;16.27;4.70;;;;;;;14.41;78.12;102651.50;5102128;28;20032;-73
2023/05/25 09:42:15;;;;;;;18.73;5.40;;;;;;;14.40;77.06;102649.75;5104549;28;20031;-73
2023/05/25 09:44:44;;;;;;;22.08;5.95;;;;;;;14.44;77.96;102648.59;5099663;28;20023;-72
2023/05/25 09:47:09;;;;;;;17.88;5.47;;;;;;;14.49;79.96;102644.66;5075156;28;20034;-72
2023/05/25 09:49:35;;;;;;;19.58;5.15;;;;;;;14.51;75.74;102649.97;5096131;28;20040;-72
2023/05/25 09:52:01;;;;;;;21.52;6.05;;;;;;;14.57;78.08;102655.00;5095313;28;20039;-72
2023/05/25 09:54:26;;;;;;;26.98;5.10;;;;;;;14.58;74.83;102645.03;5101260;28;20463;-72
2023/05/25 09:56:51;;;;;;;22.98;5.28;;;;;;;14.57;73.83;102652.28;5102437;28;20036;-72
2023/05/25 09:59:17;;;;;;;16.88;4.90;;;;;;;14.57;74.90;102660.41;5098783;28;20228;-72
2023/05/25 10:01:43;;;;;;;17.67;5.03;;;;;;;14.59;76.45;102663.88;5070534;28;20051;-72
2023/05/25 10:04:09;;;;;;;20.50;5.55;;;;;;;14.60;76.14;102662.91;5100647;28;20023;-72
2023/05/25 10:06:36;;;;;;;18.05;5.38;;;;;;;14.63;76.93;102665.47;5091122;28;20028;-72
2023/05/25 10:09:03;;;;;;;23.13;6.00;;;;;;;14.65;78.22;102657.25;5084098;28;20483;-72
2023/05/25 10:11:32;;;;;;;17.92;5.30;;;;;;;14.73;79.02;102654.06;5090786;28;20463;-73
2023/05/25 10:14:02;;;;;;;21.47;5.80;;;;;;;14.77;77.87;102658.31;5095621;28;20024;-72
2023/05/25 10:16:31;;;;;;;15.20;5.32;;;;;;;14.80;78.82;102658.13;5087473;28;20282;-72
2023/05/25 10:19:05;;;;;;;19.52;5.28;;;;;;;14.86;75.92;102655.03;5099222;28;20024;-73
2023/05/25 10:21:32;;;;;;;18.77;5.30;;;;;;;14.91;75.16;102657.47;5092863;28;20089;-73
2023/05/25 10:24:08;;;;;;;23.08;5.43;;;;;;;15.03;75.56;102659.38;5083969;28;20057;-72
2023/05/25 10:26:39;;;;;;;19.25;5.07;;;;;;;15.12;76.13;102655.22;5073372;28;20030;-72
2023/05/25 10:29:06;;;;;;;20.33;5.45;;;;;;;15.20;75.88;102661.03;5090286;28;20051;-72
2023/05/25 10:31:36;;;;;;;16.98;4.95;;;;;;;15.23;74.49;102660.84;5098984;28;20102;-72
2023/05/25 10:34:01;;;;;;;17.10;5.05;;;;;;;15.22;73.87;102667.22;5080587;28;20118;-72
2023/05/25 10:36:27;;;;;;;18.80;4.47;;;;;;;15.23;72.94;102666.25;5094619;28;20166;-72
2023/05/25 10:38:53;;;;;;;18.77;5.13;;;;;;;15.24;73.34;102653.56;5093196;28;20034;-72
2023/05/25 10:41:19;;;;;;;19.30;6.18;;;;;;;15.29;72.36;102660.44;5068837;28;20027;-72
2023/05/25 10:43:45;;;;;;;17.95;5.25;;;;;;;15.36;72.53;102664.50;5088586;28;20027;-72
2023/05/25 10:46:13;;;;;;;16.88;4.90;;;;;;;15.41;72.87;102668.75;5095324;28;20037;-73
2023/05/25 10:48:44;;;;;;;18.08;4.93;;;;;;;15.41;72.29;102664.19;5081115;28;20085;-72
2023/05/25 10:51:10;;;;;;;20.15;5.35;;;;;;;15.43;76.11;102667.66;5079776;28;20019;-72
2023/05/25 10:53:35;;;;;;;19.60;5.72;;;;;;;15.49;74.40;102663.69;5074817;28;20036;-72
2023/05/25 10:56:03;;;;;;;17.73;5.00;;;;;;;15.52;71.49;102661.66;5081384;28;20044;-72
2023/05/25 10:58:30;;;;;;;16.05;4.18;;;;;;;15.58;70.13;102657.69;5076179;28;20020;-72
2023/05/25 11:01:08;;;;;;;17.08;4.78;;;;;;;15.64;69.77;102662.69;5092188;28;20085;-72
2023/05/25 11:03:42;;;;;;;15.90;4.40;;;;;;;15.67;68.80;102659.78;5088776;28;20104;-72
2023/05/25 11:06:12;;;;;;;18.88;5.60;;;;;;;15.68;68.22;102663.34;5088559;28;20024;-73
2023/05/25 11:08:54;;;;;;;16.95;5.03;;;;;;;15.72;71.33;102663.06;5079308;28;20031;-72
2023/05/25 11:11:19;;;;;;;19.60;5.43;;;;;;;15.71;68.50;102663.13;5095867;28;20421;-72
2023/05/25 11:13:49;;;;;;;19.80;5.22;;;;;;;15.73;69.07;102659.34;5099197;28;20035;-72
2023/05/25 11:16:23;;;;;;;17.95;5.22;;;;;;;15.80;68.25;102658.97;5090337;28;20459;-73
2023/05/25 11:18:48;;;;;;;16.23;5.25;;;;;;;15.93;70.33;102657.19;5094082;28;20053;-72